createdAt,value
2023-06-17T00:01:21.430Z,68.60
2023-06-17T00:03:48.902Z,68.70
2023-06-17T00:06:16.505Z,68.60
2023-06-17T00:08:43.803Z,68.60
2023-06-17T00:11:11.916Z,68.60
2023-06-17T00:13:40.094Z,68.60
2023-06-17T00:16:07.696Z,68.50
2023-06-17T00:18:35.193Z,68.40
2023-06-17T00:21:04.123Z,68.30
2023-06-17T00:23:32.328Z,68.20
2023-06-17T00:25:59.858Z,68.30
2023-06-17T00:28:27.235Z,68.50
2023-06-17T00:30:54.683Z,68.60
2023-06-17T00:33:22.041Z,68.70
2023-06-17T00:35:49.665Z,68.80
2023-06-17T00:38:17.069Z,69.10
2023-06-17T00:40:44.424Z,69.10
2023-06-17T00:43:11.857Z,69.30
2023-06-17T00:45:40.781Z,69.40
2023-06-17T00:48:10.690Z,69.30
2023-06-17T00:50:38.629Z,69.20
2023-06-17T00:53:06.909Z,69.10
2023-06-17T00:55:36.346Z,69.00
2023-06-17T00:58:04.006Z,69.10
2023-06-17T01:00:31.980Z,69.20
2023-06-17T01:03:00.190Z,69.10
2023-06-17T01:05:28.667Z,69.20
2023-06-17T01:08:39.220Z,69.10
2023-06-17T01:11:13.232Z,70.20
2023-06-17T01:13:44.744Z,69.30
2023-06-17T01:16:12.588Z,69.40
2023-06-17T01:18:42.892Z,69.20
2023-06-17T01:21:10.596Z,69.30
2023-06-17T01:23:39.429Z,69.30
2023-06-17T01:26:08.759Z,69.40
2023-06-17T01:28:41.967Z,69.40
2023-06-17T01:31:09.649Z,69.60
2023-06-17T01:33:38.522Z,69.60
2023-06-17T01:36:23.197Z,69.60
2023-06-17T01:39:06.324Z,69.80
2023-06-17T01:41:48.001Z,69.60
2023-06-17T01:44:16.919Z,69.90
2023-06-17T01:46:45.007Z,69.50
2023-06-17T01:49:12.379Z,69.70
2023-06-17T01:51:39.852Z,69.80
2023-06-17T01:54:07.500Z,69.90
2023-06-17T01:56:35.009Z,70.00
2023-06-17T01:59:02.552Z,70.00
2023-06-17T02:01:30.032Z,70.00
2023-06-17T02:03:57.567Z,70.00
2023-06-17T02:06:25.432Z,69.90
2023-06-17T02:08:54.031Z,69.80
2023-06-17T02:11:21.781Z,69.80
2023-06-17T02:13:49.159Z,70.00
2023-06-17T02:16:16.682Z,70.10
2023-06-17T02:18:44.060Z,70.00
2023-06-17T02:21:11.409Z,70.00
2023-06-17T02:23:38.821Z,70.00
2023-06-17T02:26:06.356Z,70.00
2023-06-17T02:28:33.715Z,70.10
2023-06-17T02:31:01.076Z,70.10
2023-06-17T02:33:29.606Z,70.10
2023-06-17T02:35:57.440Z,70.00
2023-06-17T02:38:25.943Z,69.90
2023-06-17T02:40:53.581Z,69.80
2023-06-17T02:43:20.877Z,69.80
2023-06-17T02:45:48.654Z,69.80
2023-06-17T02:48:16.306Z,69.90
2023-06-17T02:50:43.669Z,69.90
2023-06-17T02:53:11.902Z,70.00
2023-06-17T02:55:39.166Z,70.20
2023-06-17T02:58:06.769Z,70.30
2023-06-17T03:00:34.217Z,70.10
2023-06-17T03:03:01.617Z,70.10
2023-06-17T03:05:31.539Z,70.20
2023-06-17T03:07:59.018Z,70.40
2023-06-17T03:10:26.325Z,70.50
2023-06-17T03:12:53.676Z,70.60
2023-06-17T03:15:21.128Z,70.70
2023-06-17T03:17:48.464Z,70.80
2023-06-17T03:20:15.884Z,70.90
2023-06-17T03:22:43.167Z,70.90
2023-06-17T03:25:12.948Z,71.00
2023-06-17T03:27:40.820Z,71.10
2023-06-17T03:30:09.492Z,71.10
2023-06-17T03:32:36.954Z,71.30
2023-06-17T03:35:06.315Z,71.30
2023-06-17T03:37:33.680Z,71.40
2023-06-17T03:40:01.202Z,71.40
2023-06-17T03:42:28.564Z,71.40
2023-06-17T03:44:56.329Z,71.40
2023-06-17T03:47:23.686Z,71.40
2023-06-17T03:49:51.064Z,71.40
2023-06-17T03:52:18.376Z,71.50
2023-06-17T03:54:45.711Z,71.60
2023-06-17T03:57:13.208Z,71.70
2023-06-17T03:59:40.587Z,71.80
2023-06-17T04:02:08.089Z,72.00
2023-06-17T04:04:36.409Z,72.40
2023-06-17T04:07:05.528Z,72.50
2023-06-17T04:09:32.884Z,72.80
2023-06-17T04:12:00.393Z,73.10
2023-06-17T04:14:28.162Z,73.20
2023-06-17T04:16:57.629Z,73.20
2023-06-17T04:19:25.298Z,73.30
2023-06-17T04:21:52.679Z,73.60
2023-06-17T04:24:20.200Z,73.60
2023-06-17T04:26:47.838Z,73.60
2023-06-17T04:29:15.909Z,73.60
2023-06-17T04:31:47.601Z,73.60
2023-06-17T04:34:22.604Z,73.60
2023-06-17T04:36:58.683Z,73.50
2023-06-17T04:39:30.081Z,73.50
2023-06-17T04:41:57.975Z,73.40
2023-06-17T04:44:25.428Z,73.40
2023-06-17T04:46:53.277Z,73.40
2023-06-17T04:49:21.025Z,73.40
2023-06-17T04:51:49.860Z,73.50
2023-06-17T04:54:17.359Z,73.50
2023-06-17T04:56:44.792Z,73.80
2023-06-17T04:59:12.266Z,73.80
2023-06-17T05:01:40.574Z,73.60
2023-06-17T05:04:08.983Z,73.70
2023-06-17T05:06:36.641Z,73.70
2023-06-17T05:09:04.116Z,73.80
2023-06-17T05:11:31.525Z,74.10
2023-06-17T05:13:58.897Z,74.20
2023-06-17T05:16:26.228Z,74.30
2023-06-17T05:18:53.705Z,74.30
2023-06-17T05:21:24.678Z,74.40
2023-06-17T05:23:52.649Z,74.30
2023-06-17T05:26:20.133Z,74.00
2023-06-17T05:28:47.531Z,73.80
2023-06-17T05:31:15.182Z,73.60
2023-06-17T05:33:43.077Z,73.60
2023-06-17T05:36:10.620Z,73.40
2023-06-17T05:38:38.356Z,73.20
2023-06-17T05:41:06.213Z,72.80
2023-06-17T05:43:33.717Z,72.60
2023-06-17T05:46:01.602Z,72.20
2023-06-17T05:48:29.129Z,72.20
2023-06-17T05:50:56.458Z,71.90
2023-06-17T05:53:23.791Z,71.80
2023-06-17T05:55:51.907Z,71.60
2023-06-17T05:58:19.415Z,71.70
2023-06-17T06:00:47.580Z,72.00
2023-06-17T06:03:15.022Z,72.40
2023-06-17T06:05:42.582Z,72.40
2023-06-17T06:08:09.983Z,72.30
2023-06-17T06:10:37.348Z,72.30
2023-06-17T06:13:04.776Z,72.10
2023-06-17T06:15:32.217Z,71.90
2023-06-17T06:17:59.618Z,72.00
2023-06-17T06:20:27.486Z,72.00
2023-06-17T06:22:54.997Z,71.80
2023-06-17T06:25:23.053Z,71.60
2023-06-17T06:27:51.889Z,71.20
2023-06-17T06:30:20.169Z,70.90
2023-06-17T06:32:47.976Z,70.60
2023-06-17T06:35:16.266Z,70.40
2023-06-17T06:37:43.649Z,70.70
2023-06-17T06:40:11.338Z,70.60
2023-06-17T06:42:38.938Z,70.40
2023-06-17T06:45:07.652Z,70.30
2023-06-17T06:47:35.206Z,70.20
2023-06-17T06:50:02.643Z,70.20
2023-06-17T06:52:29.938Z,69.90
2023-06-17T06:54:57.321Z,69.70
2023-06-17T06:57:24.658Z,69.70
2023-06-17T06:59:52.786Z,69.50
2023-06-17T07:02:20.286Z,69.50
2023-06-17T07:04:47.898Z,69.40
2023-06-17T07:07:15.632Z,69.50
2023-06-17T07:09:43.354Z,69.40
2023-06-17T07:12:12.852Z,69.20
2023-06-17T07:14:40.186Z,69.00
2023-06-17T07:17:07.869Z,68.70
2023-06-17T07:19:35.385Z,68.50
2023-06-17T07:22:02.764Z,68.20
2023-06-17T07:24:30.267Z,68.30
2023-06-17T07:26:57.672Z,68.40
2023-06-17T07:29:24.971Z,68.30
2023-06-17T07:31:52.349Z,67.90
2023-06-17T07:34:19.726Z,67.70
2023-06-17T07:36:47.054Z,67.90
2023-06-17T07:39:14.522Z,67.90
2023-06-17T07:41:41.954Z,67.70
2023-06-17T07:44:09.298Z,67.40
2023-06-17T07:46:36.732Z,67.10
2023-06-17T07:49:04.160Z,67.00
2023-06-17T07:51:32.127Z,66.50
2023-06-17T07:53:59.472Z,66.00
2023-06-17T07:56:29.188Z,65.90
2023-06-17T07:58:57.347Z,66.10
2023-06-17T08:01:24.826Z,65.80
2023-06-17T08:03:52.613Z,65.60
2023-06-17T08:06:20.212Z,65.10
2023-06-17T08:08:48.042Z,65.50
2023-06-17T08:11:15.539Z,65.20
2023-06-17T08:13:42.882Z,64.80
2023-06-17T08:16:10.222Z,64.60
2023-06-17T08:18:37.615Z,64.40
2023-06-17T08:21:04.955Z,64.20
2023-06-17T08:23:32.375Z,64.10
2023-06-17T08:25:59.618Z,64.10
2023-06-17T08:28:27.547Z,64.00
2023-06-17T08:30:56.220Z,63.60
2023-06-17T08:33:23.633Z,63.30
2023-06-17T08:35:51.335Z,63.10
2023-06-17T08:38:18.765Z,63.00
2023-06-17T08:40:49.605Z,63.00
2023-06-17T08:43:21.509Z,62.90
2023-06-17T08:45:52.050Z,62.80
2023-06-17T08:48:20.439Z,62.00
2023-06-17T08:50:50.616Z,62.60
2023-06-17T08:53:18.755Z,62.40
2023-06-17T08:55:46.424Z,62.30
2023-06-17T08:58:13.815Z,62.30
2023-06-17T09:00:41.546Z,62.20
2023-06-17T09:03:10.808Z,61.90
2023-06-17T09:05:38.189Z,61.60
2023-06-17T09:08:06.497Z,61.60
2023-06-17T09:10:44.808Z,61.30
2023-06-17T09:13:12.602Z,59.60
2023-06-17T09:15:45.134Z,60.70
2023-06-17T09:18:16.827Z,59.70
2023-06-17T09:20:52.863Z,60.10
2023-06-17T09:23:20.315Z,58.00
2023-06-17T09:25:47.727Z,60.60
2023-06-17T09:28:17.855Z,59.70
2023-06-17T09:30:45.531Z,58.80
2023-06-17T09:33:25.133Z,59.00
2023-06-17T09:36:05.607Z,58.20
2023-06-17T09:38:33.431Z,56.70
2023-06-17T09:41:01.205Z,58.10
2023-06-17T09:43:29.928Z,57.30
2023-06-17T09:46:04.663Z,56.90
2023-06-17T09:48:40.522Z,55.60
2023-06-17T09:51:13.699Z,56.10
2023-06-17T09:53:43.361Z,55.10
2023-06-17T09:56:13.804Z,55.60
2023-06-17T09:58:44.618Z,55.60
2023-06-17T10:01:13.804Z,55.30
2023-06-17T10:03:41.839Z,55.20
2023-06-17T10:06:12.756Z,54.80
2023-06-17T10:08:45.028Z,54.00
2023-06-17T10:11:21.813Z,53.80
2023-06-17T10:14:14.885Z,54.00
2023-06-17T10:16:49.091Z,54.20
2023-06-17T10:19:23.821Z,55.00
2023-06-17T10:21:57.668Z,55.40
2023-06-17T10:24:27.233Z,55.50
2023-06-17T10:26:55.196Z,55.90
2023-06-17T10:29:22.664Z,55.80
2023-06-17T10:31:52.390Z,55.60
2023-06-17T10:34:24.502Z,55.50
2023-06-17T10:37:02.060Z,55.00
2023-06-17T10:39:29.434Z,55.30
2023-06-17T10:42:00.998Z,55.30
2023-06-17T10:44:34.891Z,56.10
2023-06-17T10:47:04.567Z,54.90
2023-06-17T10:49:41.165Z,55.50
2023-06-17T10:52:14.724Z,54.40
2023-06-17T10:54:55.443Z,56.30
2023-06-17T10:57:35.125Z,56.50
2023-06-17T11:00:13.480Z,57.20
2023-06-17T11:02:42.112Z,57.60
2023-06-17T11:05:10.643Z,57.80
2023-06-17T11:07:38.121Z,58.30
2023-06-17T11:10:07.341Z,58.60
2023-06-17T11:12:40.698Z,57.80
2023-06-17T11:15:09.842Z,57.60
2023-06-17T11:17:37.284Z,58.10
2023-06-17T11:20:09.647Z,58.70
2023-06-17T11:22:41.303Z,57.80
2023-06-17T11:25:12.081Z,57.10
2023-06-17T11:27:42.283Z,57.20
2023-06-17T11:30:10.857Z,57.90
2023-06-17T11:32:44.532Z,57.60
2023-06-17T11:35:13.187Z,56.70
2023-06-17T11:37:40.724Z,56.20
2023-06-17T11:40:13.600Z,55.50
2023-06-17T11:42:42.230Z,56.00
2023-06-17T11:45:10.329Z,56.30
2023-06-17T11:47:38.193Z,56.30
2023-06-17T11:50:07.618Z,56.20
2023-06-17T11:52:36.045Z,55.90
2023-06-17T11:55:05.862Z,54.40
2023-06-17T11:57:34.428Z,53.70
2023-06-17T12:00:06.490Z,53.30
2023-06-17T12:02:36.661Z,53.20
2023-06-17T12:05:04.798Z,53.00
2023-06-17T12:07:41.808Z,52.80
2023-06-17T12:10:12.455Z,51.00
2023-06-17T12:12:41.606Z,52.40
2023-06-17T12:15:16.847Z,52.10
2023-06-17T12:17:48.878Z,52.40
2023-06-17T12:20:22.029Z,52.70
2023-06-17T12:22:52.191Z,52.70
2023-06-17T12:25:20.483Z,52.50
2023-06-17T12:27:48.491Z,52.60
2023-06-17T12:30:16.102Z,52.70
2023-06-17T12:32:44.736Z,52.90
2023-06-17T12:35:13.497Z,52.70
2023-06-17T12:37:43.175Z,52.90
2023-06-17T12:40:12.936Z,53.20
2023-06-17T12:42:40.958Z,53.10
2023-06-17T12:45:09.728Z,53.00
2023-06-17T12:47:40.198Z,52.80
2023-06-17T12:50:08.571Z,52.50
2023-06-17T12:52:36.025Z,52.80
2023-06-17T12:55:06.161Z,52.60
2023-06-17T12:57:34.170Z,52.90
2023-06-17T13:00:01.646Z,52.60
2023-06-17T13:02:32.700Z,52.60
2023-06-17T13:05:00.321Z,52.70
2023-06-17T13:07:29.611Z,52.50
2023-06-17T13:09:58.567Z,52.60
2023-06-17T13:12:26.220Z,52.30
2023-06-17T13:14:53.580Z,52.10
2023-06-17T13:17:20.994Z,52.70
2023-06-17T13:19:48.366Z,52.60
2023-06-17T13:22:15.847Z,52.70
2023-06-17T13:24:43.188Z,52.40
2023-06-17T13:27:12.653Z,51.90
2023-06-17T13:29:40.564Z,51.70
2023-06-17T13:32:08.123Z,52.10
2023-06-17T13:34:35.410Z,51.60
2023-06-17T13:37:02.777Z,51.20
2023-06-17T13:39:30.987Z,51.00
2023-06-17T13:41:59.858Z,51.60
2023-06-17T13:44:27.128Z,51.30
2023-06-17T13:46:55.745Z,50.50
2023-06-17T13:49:24.275Z,50.60
2023-06-17T13:51:52.408Z,50.40
2023-06-17T13:54:21.803Z,50.30
2023-06-17T13:56:52.786Z,49.80
2023-06-17T13:59:20.197Z,49.30
2023-06-17T14:01:48.147Z,49.20
2023-06-17T14:04:15.670Z,48.70
2023-06-17T14:06:47.438Z,48.60
2023-06-17T14:09:15.230Z,48.80
2023-06-17T14:11:42.608Z,43.00
2023-06-17T14:14:10.098Z,48.10
2023-06-17T14:16:37.477Z,48.00
2023-06-17T14:19:04.929Z,47.60
2023-06-17T14:21:36.015Z,47.50
2023-06-17T14:24:09.096Z,47.40
2023-06-17T14:26:39.865Z,47.00
2023-06-17T14:29:09.634Z,47.80
2023-06-17T14:31:38.054Z,47.90
2023-06-17T14:34:05.502Z,48.20
2023-06-17T14:36:33.082Z,48.20
2023-06-17T14:39:01.924Z,48.20
2023-06-17T14:41:31.240Z,47.90
2023-06-17T14:44:00.448Z,48.00
2023-06-17T14:46:27.924Z,48.00
2023-06-17T14:48:55.255Z,47.60
2023-06-17T14:51:22.635Z,47.60
2023-06-17T14:53:49.972Z,47.90
2023-06-17T14:56:31.267Z,47.50
2023-06-17T14:59:04.124Z,47.60
2023-06-17T15:01:36.731Z,47.60
2023-06-17T15:04:08.043Z,47.70
2023-06-17T15:06:36.775Z,47.50
2023-06-17T15:09:36.214Z,47.10
2023-06-17T15:12:15.395Z,47.40
2023-06-17T15:14:42.834Z,47.20
2023-06-17T15:17:11.104Z,46.80
2023-06-17T15:19:38.659Z,46.70
2023-06-17T15:22:06.882Z,46.60
2023-06-17T15:24:35.052Z,46.50
2023-06-17T15:27:02.879Z,46.30
2023-06-17T15:29:30.139Z,46.30
2023-06-17T15:31:57.458Z,46.40
2023-06-17T15:34:24.852Z,46.30
2023-06-17T15:36:52.683Z,45.80
2023-06-17T15:39:32.802Z,45.50
2023-06-17T15:42:00.237Z,45.70
2023-06-17T15:44:27.601Z,46.00
2023-06-17T15:46:55.141Z,45.60
2023-06-17T15:49:22.520Z,45.60
2023-06-17T15:51:49.991Z,45.40
2023-06-17T15:54:19.430Z,45.10
2023-06-17T15:56:47.676Z,44.80
2023-06-17T15:59:15.347Z,44.80
2023-06-17T16:01:42.814Z,45.10
2023-06-17T16:04:38.787Z,45.50
2023-06-17T16:07:10.279Z,45.50
2023-06-17T16:09:40.463Z,46.40
2023-06-17T16:12:08.850Z,46.70
2023-06-17T16:14:37.216Z,46.70
